Details for Norwegian Air International at EGKK




Go Back


Latest METAR
Local Time

EGKK 212320Z VRB03KT CAVOK 11/07 Q1029

22/06/2018, 00:38:56

Description
Results
Norwegian Air International Logo
Number of Pilots based at EGKK
6 Pilots Based here
Number of Norwegian Air International Flights Departed from EGKK
11 Flights Departed
Number of Norwegian Air International Flights Arrived at EGKK
9 Flights Arrived
Number of Norwegian Air International Schedules Departing from EGKK
71 Schedules
Number of Norwegian Air International Schedules Arriving at EGKK
67 Schedules
Number of Norwegian Air International Schedules Departing from EGKK availible today
23 Schedules Today
Number of Norwegian Air International Schedules Arriving at EGKK availible today
25 Schedules Today
Average Landing Rate at EGKK
-232 fpm
Norwegian Air International Average Landing Rate at EGKK
-223 fpm
Total Fuel Purchased at EGKK by Norwegian Air International
71,102.87 kgs / 156,753.39 lbs

Pilots Based at EGKK


Pilot ID
Pilot Name
Pilot Rank
No. of Flights
No. of Flying Hours
Dan Symons
113
427.03
George Jones
35
95.53
Maurice Lyon
136
688.09
Matthew Smith
93
700.29
William Shaw
180
430.37
Clive Kent
2
2.43
Content